createdAt,value
2023-02-06T00:01:44.543Z,31.06
2023-02-06T00:04:13.197Z,31.15
2023-02-06T00:06:41.820Z,29.65
2023-02-06T00:09:10.281Z,30.02
2023-02-06T00:11:39.110Z,30.18
2023-02-06T00:14:07.614Z,29.81
2023-02-06T00:16:37.564Z,29.26
2023-02-06T00:19:05.967Z,29.41
2023-02-06T00:21:34.664Z,28.95
2023-02-06T00:24:03.687Z,28.98
2023-02-06T00:26:32.525Z,29.34
2023-02-06T00:29:01.045Z,28.63
2023-02-06T00:31:29.653Z,29.17
2023-02-06T00:33:59.299Z,29.36
2023-02-06T00:36:28.207Z,29.44
2023-02-06T00:38:56.542Z,29.02
2023-02-06T00:41:25.027Z,30.36
2023-02-06T00:43:53.278Z,29.88
2023-02-06T00:46:22.369Z,29.42
2023-02-06T00:48:50.689Z,29.54
2023-02-06T00:51:20.504Z,29.69
2023-02-06T00:53:50.974Z,29.62
2023-02-06T00:56:20.568Z,28.61
2023-02-06T00:58:48.862Z,29.08
2023-02-06T01:01:17.674Z,28.96
2023-02-06T01:03:46.061Z,29.10
2023-02-06T01:06:14.999Z,29.61
2023-02-06T01:08:44.709Z,29.85
2023-02-06T01:11:15.326Z,29.32
2023-02-06T01:13:45.027Z,29.64
2023-02-06T01:16:18.673Z,29.75
2023-02-06T01:18:47.549Z,30.16
2023-02-06T01:21:17.664Z,30.12
2023-02-06T01:23:48.796Z,29.91
2023-02-06T01:26:20.326Z,30.64
2023-02-06T01:28:50.280Z,30.77
2023-02-06T01:31:21.221Z,30.34
2023-02-06T01:33:52.250Z,30.13
2023-02-06T01:36:21.635Z,30.24
2023-02-06T01:38:51.441Z,30.66
2023-02-06T01:41:21.666Z,30.15
2023-02-06T01:44:13.257Z,29.45
2023-02-06T01:46:43.244Z,30.04
2023-02-06T01:49:15.246Z,29.93
2023-02-06T01:51:44.057Z,30.34
2023-02-06T01:54:15.613Z,29.78
2023-02-06T01:56:47.517Z,30.29
2023-02-06T01:59:15.912Z,31.43
2023-02-06T02:01:45.056Z,30.95
2023-02-06T02:04:16.616Z,31.24
2023-02-06T02:06:47.426Z,31.09
2023-02-06T02:09:19.095Z,31.57
2023-02-06T02:11:47.744Z,31.11
2023-02-06T02:14:18.106Z,31.08
2023-02-06T02:16:56.488Z,31.31
2023-02-06T02:19:54.802Z,31.21
2023-02-06T02:22:53.051Z,31.22
2023-02-06T02:25:48.904Z,31.48
2023-02-06T02:28:44.490Z,30.85
2023-02-06T02:31:21.648Z,31.36
2023-02-06T02:34:28.944Z,30.47
2023-02-06T02:37:01.732Z,30.64
2023-02-06T02:39:36.174Z,30.92
2023-02-06T02:42:14.715Z,30.42
2023-02-06T02:44:48.571Z,30.67
2023-02-06T02:47:18.553Z,30.95
2023-02-06T02:49:47.352Z,30.40
2023-02-06T02:52:17.240Z,30.92
2023-02-06T02:54:45.867Z,30.62
2023-02-06T02:57:17.478Z,30.44
2023-02-06T02:59:47.903Z,29.98
2023-02-06T03:02:20.284Z,29.66
2023-02-06T03:04:50.822Z,29.79
2023-02-06T03:07:28.296Z,29.38
2023-02-06T03:10:02.965Z,29.55
2023-02-06T03:12:36.574Z,29.16
2023-02-06T03:15:09.007Z,29.47
2023-02-06T03:17:40.437Z,29.34
2023-02-06T03:20:11.012Z,29.06
2023-02-06T03:22:42.261Z,29.41
2023-02-06T03:25:14.254Z,28.62
2023-02-06T03:27:43.877Z,28.95
2023-02-06T03:30:14.163Z,29.28
2023-02-06T03:32:44.544Z,29.27
2023-02-06T03:35:17.533Z,28.80
2023-02-06T03:37:49.179Z,28.42
2023-02-06T03:40:18.569Z,28.71
2023-02-06T03:42:51.660Z,28.64
2023-02-06T03:45:25.771Z,28.94
2023-02-06T03:47:55.848Z,28.80
2023-02-06T03:50:25.106Z,28.82
2023-02-06T03:52:56.716Z,28.57
2023-02-06T03:55:34.781Z,29.54
2023-02-06T03:58:06.912Z,30.15
2023-02-06T04:00:35.811Z,30.67
2023-02-06T04:03:05.117Z,31.00
2023-02-06T04:05:33.918Z,31.38
2023-02-06T04:08:04.123Z,31.79
2023-02-06T04:10:32.824Z,32.25
2023-02-06T04:13:01.304Z,32.40
2023-02-06T04:15:30.063Z,32.62
2023-02-06T04:18:01.133Z,33.00
2023-02-06T04:20:30.911Z,33.04
2023-02-06T04:22:59.497Z,33.48
2023-02-06T04:25:29.699Z,33.43
2023-02-06T04:27:57.877Z,33.58
2023-02-06T04:30:26.443Z,33.86
2023-02-06T04:32:54.722Z,33.83
2023-02-06T04:35:23.191Z,33.93
2023-02-06T04:37:51.451Z,33.80
2023-02-06T04:40:20.190Z,33.98
2023-02-06T04:42:49.941Z,33.99
2023-02-06T04:45:18.435Z,34.28
2023-02-06T04:47:49.732Z,34.49
2023-02-06T04:50:19.614Z,34.71
2023-02-06T04:52:47.844Z,34.85
2023-02-06T04:55:16.517Z,34.99
2023-02-06T04:57:44.867Z,34.69
2023-02-06T05:00:16.476Z,34.49
2023-02-06T05:02:44.689Z,34.59
2023-02-06T05:05:14.252Z,34.42
2023-02-06T05:07:42.458Z,34.63
2023-02-06T05:10:11.574Z,34.34
2023-02-06T05:12:39.940Z,34.37
2023-02-06T05:15:09.241Z,34.32
2023-02-06T05:17:38.912Z,34.52
2023-02-06T05:20:08.489Z,34.50
2023-02-06T05:22:37.756Z,34.56
2023-02-06T05:25:06.974Z,34.59
2023-02-06T05:27:35.264Z,34.81
2023-02-06T05:30:03.890Z,34.96
2023-02-06T05:32:32.123Z,35.14
2023-02-06T05:35:02.003Z,34.92
2023-02-06T05:37:30.327Z,34.88
2023-02-06T05:40:00.056Z,35.32
2023-02-06T05:42:28.535Z,35.08
2023-02-06T05:44:57.101Z,35.14
2023-02-06T05:47:26.036Z,35.11
2023-02-06T05:49:54.938Z,35.16
2023-02-06T05:52:24.659Z,35.14
2023-02-06T05:54:53.241Z,35.11
2023-02-06T05:57:21.556Z,35.05
2023-02-06T05:59:50.230Z,35.30
2023-02-06T06:02:18.792Z,35.14
2023-02-06T06:04:47.511Z,35.26
2023-02-06T06:07:16.394Z,35.19
2023-02-06T06:09:46.820Z,34.67
2023-02-06T06:12:15.150Z,35.17
2023-02-06T06:14:43.870Z,34.98
2023-02-06T06:17:12.145Z,34.77
2023-02-06T06:19:40.667Z,35.00
2023-02-06T06:22:09.254Z,34.65
2023-02-06T06:24:37.934Z,34.52
2023-02-06T06:27:10.674Z,34.24
2023-02-06T06:29:39.468Z,34.42
2023-02-06T06:32:07.895Z,34.53
2023-02-06T06:34:36.584Z,33.01
2023-02-06T06:37:05.059Z,31.51
2023-02-06T06:39:33.685Z,30.83
2023-02-06T06:42:04.441Z,31.39
2023-02-06T06:44:34.409Z,31.34
2023-02-06T06:47:02.580Z,31.02
2023-02-06T06:49:31.204Z,31.06
2023-02-06T06:51:59.781Z,30.59
2023-02-06T06:54:28.220Z,30.13
2023-02-06T06:56:56.611Z,29.91
2023-02-06T06:59:25.401Z,30.59
2023-02-06T07:01:55.179Z,30.62
2023-02-06T07:04:28.575Z,30.23
2023-02-06T07:06:57.106Z,30.33
2023-02-06T07:09:25.838Z,30.91
2023-02-06T07:11:54.287Z,30.85
2023-02-06T07:14:22.769Z,31.31
2023-02-06T07:16:51.084Z,30.50
2023-02-06T07:19:21.439Z,30.27
2023-02-06T07:21:49.870Z,29.83
2023-02-06T07:24:19.075Z,29.68
2023-02-06T07:26:47.361Z,28.75
2023-02-06T07:29:16.229Z,28.52
2023-02-06T07:31:44.534Z,29.02
2023-02-06T07:34:13.685Z,28.75
2023-02-06T07:36:43.639Z,29.28
2023-02-06T07:39:12.135Z,29.52
2023-02-06T07:41:40.396Z,29.24
2023-02-06T07:44:09.062Z,29.35
2023-02-06T07:46:37.251Z,30.23
2023-02-06T07:49:05.805Z,29.72
2023-02-06T07:51:34.059Z,29.42
2023-02-06T07:54:04.030Z,29.00
2023-02-06T07:56:32.705Z,29.60
2023-02-06T07:59:01.462Z,28.65
2023-02-06T08:01:29.950Z,28.43
2023-02-06T08:03:58.763Z,28.46
2023-02-06T08:06:27.650Z,28.34
2023-02-06T08:08:57.211Z,28.81
2023-02-06T08:11:30.248Z,27.77
2023-02-06T08:13:59.417Z,27.52
2023-02-06T08:16:27.802Z,27.87
2023-02-06T08:18:56.334Z,27.28
2023-02-06T08:21:26.144Z,26.39
2023-02-06T08:23:58.903Z,27.91
2023-02-06T08:26:29.875Z,26.42
2023-02-06T08:28:58.740Z,28.47
2023-02-06T08:31:29.472Z,27.04
2023-02-06T08:33:58.247Z,26.77
2023-02-06T08:36:27.039Z,27.64
2023-02-06T08:38:55.768Z,25.88
2023-02-06T08:41:26.309Z,24.06
2023-02-06T08:43:57.867Z,25.27
2023-02-06T08:46:28.413Z,24.81
2023-02-06T08:48:58.732Z,25.39
2023-02-06T08:51:28.063Z,25.84
2023-02-06T08:54:00.221Z,27.18
2023-02-06T08:56:29.589Z,25.91
2023-02-06T08:59:00.586Z,25.03
2023-02-06T09:01:30.887Z,25.74
2023-02-06T09:04:01.073Z,25.95
2023-02-06T09:06:30.785Z,25.05
2023-02-06T09:08:59.586Z,24.00
2023-02-06T09:11:28.624Z,24.31
2023-02-06T09:14:00.409Z,22.78
2023-02-06T09:16:29.909Z,24.92
2023-02-06T09:19:01.474Z,24.18
2023-02-06T09:21:30.712Z,27.00
2023-02-06T09:24:01.432Z,23.81
2023-02-06T09:26:30.910Z,22.40
2023-02-06T09:29:03.256Z,23.60
2023-02-06T09:31:32.285Z,21.55
2023-02-06T09:34:01.452Z,22.79
2023-02-06T09:36:30.790Z,21.98
2023-02-06T09:38:59.567Z,21.94
2023-02-06T09:41:41.818Z,22.61
2023-02-06T09:44:17.218Z,21.61
2023-02-06T09:46:48.318Z,20.92
2023-02-06T09:49:18.513Z,17.43
2023-02-06T09:52:31.402Z,17.73
2023-02-06T09:55:07.193Z,18.75
2023-02-06T09:57:40.532Z,15.31
2023-02-06T10:00:30.598Z,20.57
2023-02-06T10:03:08.515Z,15.52
2023-02-06T10:05:48.140Z,12.60
2023-02-06T10:08:20.900Z,14.29
2023-02-06T10:10:51.992Z,14.41
2023-02-06T10:13:24.214Z,10.13
2023-02-06T10:15:57.950Z,9.76
2023-02-06T10:18:33.543Z,8.72
2023-02-06T10:21:06.109Z,6.35
2023-02-06T10:23:38.862Z,5.05
2023-02-06T10:26:12.475Z,5.87
2023-02-06T10:28:41.821Z,7.33
2023-02-06T10:31:26.822Z,7.96
2023-02-06T10:34:05.828Z,9.06
2023-02-06T10:36:46.784Z,9.20
2023-02-06T10:39:40.385Z,8.78
2023-02-06T10:42:13.730Z,7.93
2023-02-06T10:44:51.042Z,8.10
2023-02-06T10:47:30.473Z,8.56
2023-02-06T10:50:03.301Z,8.62
2023-02-06T10:52:34.665Z,8.75
2023-02-06T10:55:06.653Z,7.79
2023-02-06T10:57:35.629Z,7.73
2023-02-06T11:00:05.963Z,7.72
2023-02-06T11:02:44.506Z,7.70
2023-02-06T11:05:17.533Z,7.79
2023-02-06T11:07:47.903Z,8.45
2023-02-06T11:10:18.812Z,8.04
2023-02-06T11:12:51.452Z,6.55
2023-02-06T11:15:23.852Z,5.91
2023-02-06T11:17:55.062Z,6.43
2023-02-06T11:20:25.378Z,7.46
2023-02-06T11:22:54.033Z,7.15
2023-02-06T11:25:27.414Z,7.36
2023-02-06T11:27:59.234Z,7.12
2023-02-06T11:30:35.005Z,6.11
2023-02-06T11:33:07.625Z,6.16
2023-02-06T11:35:39.713Z,6.17
2023-02-06T11:38:16.220Z,6.71
2023-02-06T11:40:45.170Z,7.24
2023-02-06T11:43:18.972Z,6.75
2023-02-06T11:45:48.699Z,8.15
2023-02-06T11:48:40.730Z,9.25
2023-02-06T11:51:10.497Z,9.31
2023-02-06T11:53:39.601Z,9.79
2023-02-06T11:56:19.063Z,11.37
2023-02-06T11:58:48.457Z,12.47
2023-02-06T12:01:20.482Z,11.66
2023-02-06T12:03:57.777Z,10.60
2023-02-06T12:06:30.742Z,10.66
2023-02-06T12:09:00.598Z,9.91
2023-02-06T12:11:33.401Z,9.14
2023-02-06T12:14:06.270Z,8.98
2023-02-06T12:16:37.995Z,9.02
2023-02-06T12:19:12.613Z,9.47
2023-02-06T12:21:44.186Z,10.40
2023-02-06T12:24:22.301Z,11.85
2023-02-06T12:26:52.263Z,13.56
2023-02-06T12:29:24.828Z,14.41
2023-02-06T12:32:00.022Z,15.17
2023-02-06T12:34:41.654Z,15.46
2023-02-06T12:37:14.519Z,15.98
2023-02-06T12:39:45.506Z,16.51
2023-02-06T12:42:36.371Z,16.43
2023-02-06T12:45:09.417Z,17.01
2023-02-06T12:47:42.711Z,18.06
2023-02-06T12:50:16.805Z,19.03
2023-02-06T12:52:49.141Z,19.10
2023-02-06T12:55:22.587Z,19.50
2023-02-06T12:57:51.090Z,19.53
2023-02-06T13:00:40.884Z,20.21
2023-02-06T13:03:28.445Z,19.69
2023-02-06T13:06:04.657Z,20.20
2023-02-06T13:08:41.568Z,20.53
2023-02-06T13:11:19.161Z,20.57
2023-02-06T13:13:47.642Z,20.88
2023-02-06T13:16:16.424Z,21.30
2023-02-06T13:18:54.698Z,20.89
2023-02-06T13:21:28.785Z,20.75
2023-02-06T13:24:18.105Z,20.45
2023-02-06T13:27:19.994Z,21.18
2023-02-06T13:29:48.380Z,21.29
2023-02-06T13:32:41.073Z,21.59
2023-02-06T13:35:24.354Z,22.21
2023-02-06T13:38:14.714Z,22.15
2023-02-06T13:40:43.762Z,22.72
2023-02-06T13:43:18.784Z,22.56
2023-02-06T13:45:54.124Z,21.96
2023-02-06T13:48:49.701Z,22.03
2023-02-06T13:51:46.944Z,22.30
2023-02-06T13:54:49.139Z,21.98
2023-02-06T13:57:31.191Z,22.16
2023-02-06T14:00:03.373Z,22.45
2023-02-06T14:02:38.130Z,22.34
2023-02-06T14:05:12.467Z,22.32
2023-02-06T14:08:10.446Z,22.53
2023-02-06T14:11:28.736Z,22.08
2023-02-06T14:14:15.178Z,21.80
2023-02-06T14:16:49.803Z,22.13
2023-02-06T14:19:27.700Z,23.54
2023-02-06T14:22:03.433Z,22.90
2023-02-06T14:24:51.844Z,23.21
2023-02-06T14:27:31.199Z,23.89
2023-02-06T14:30:07.556Z,23.84
2023-02-06T14:32:44.341Z,24.17
2023-02-06T14:35:33.041Z,23.98
2023-02-06T14:38:28.809Z,23.75
2023-02-06T14:41:00.745Z,24.88
2023-02-06T14:43:33.105Z,24.44
2023-02-06T14:46:08.068Z,24.81
2023-02-06T14:48:41.849Z,24.59
2023-02-06T14:51:20.787Z,24.27
2023-02-06T14:53:53.862Z,24.17
2023-02-06T14:56:28.220Z,24.85
2023-02-06T14:58:59.004Z,24.86
2023-02-06T15:01:30.274Z,24.93
2023-02-06T15:04:11.067Z,25.09
2023-02-06T15:06:40.990Z,25.14
2023-02-06T15:09:10.239Z,25.00
2023-02-06T15:11:38.597Z,25.38
2023-02-06T15:14:27.687Z,25.20
2023-02-06T15:17:00.966Z,25.92
2023-02-06T15:19:31.339Z,25.22
2023-02-06T15:22:02.255Z,25.30
2023-02-06T15:24:40.564Z,24.82
2023-02-06T15:27:14.007Z,25.07
2023-02-06T15:29:48.288Z,25.13
2023-02-06T15:32:24.277Z,25.05
2023-02-06T15:34:53.122Z,25.40
2023-02-06T15:37:23.802Z,25.56
2023-02-06T15:39:53.420Z,25.29
2023-02-06T15:42:22.834Z,25.74
2023-02-06T15:44:53.606Z,25.69
2023-02-06T15:47:22.186Z,25.95
2023-02-06T15:49:53.295Z,25.53
2023-02-06T15:52:35.225Z,25.59
2023-02-06T15:55:04.954Z,25.85
2023-02-06T15:57:35.550Z,25.94
2023-02-06T16:00:09.823Z,26.14
2023-02-06T16:02:39.220Z,26.35
2023-02-06T16:05:09.213Z,25.84
2023-02-06T16:07:38.773Z,25.79
2023-02-06T16:10:21.665Z,25.42
2023-02-06T16:12:50.960Z,26.28
2023-02-06T16:15:30.316Z,25.62
2023-02-06T16:18:00.160Z,26.13
2023-02-06T16:20:39.872Z,25.61
2023-02-06T16:23:29.886Z,25.77
2023-02-06T16:26:04.988Z,26.04
2023-02-06T16:28:33.298Z,26.14
2023-02-06T16:31:05.503Z,26.00
2023-02-06T16:33:38.440Z,26.44
2023-02-06T16:36:07.858Z,26.44
2023-02-06T16:38:36.148Z,26.94
2023-02-06T16:41:04.984Z,27.24
2023-02-06T16:43:33.456Z,27.59
2023-02-06T16:46:03.350Z,27.11
2023-02-06T16:48:31.750Z,27.04
2023-02-06T16:51:00.588Z,26.69
2023-02-06T16:53:29.492Z,26.30
2023-02-06T16:55:58.037Z,26.71
2023-02-06T16:58:28.574Z,26.59
2023-02-06T17:00:57.332Z,26.51
2023-02-06T17:03:27.413Z,26.72
2023-02-06T17:05:55.975Z,26.92
2023-02-06T17:08:25.684Z,26.44
2023-02-06T17:10:54.386Z,26.74
2023-02-06T17:13:24.833Z,26.60
2023-02-06T17:15:53.682Z,27.12
2023-02-06T17:18:23.749Z,26.94
2023-02-06T17:20:56.330Z,26.72
2023-02-06T17:23:25.612Z,27.16
2023-02-06T17:25:54.225Z,26.97
2023-02-06T17:28:22.920Z,26.98
2023-02-06T17:30:52.193Z,27.11
2023-02-06T17:33:21.092Z,27.02
2023-02-06T17:35:50.123Z,27.03
2023-02-06T17:38:20.173Z,26.99
2023-02-06T17:40:48.877Z,27.15
2023-02-06T17:43:17.414Z,27.00
2023-02-06T17:45:46.140Z,27.03
2023-02-06T17:48:14.740Z,27.25
2023-02-06T17:50:43.819Z,27.03
2023-02-06T17:53:14.200Z,26.92
2023-02-06T17:55:45.299Z,27.08
2023-02-06T17:58:13.560Z,27.20
2023-02-06T18:00:42.157Z,27.21
2023-02-06T18:03:11.541Z,27.35
2023-02-06T18:05:40.335Z,27.44
2023-02-06T18:08:08.782Z,27.45
2023-02-06T18:10:40.712Z,27.38
2023-02-06T18:13:10.281Z,26.68
2023-02-06T18:15:38.946Z,27.56
2023-02-06T18:18:07.377Z,27.46
2023-02-06T18:20:36.711Z,27.49
2023-02-06T18:23:05.292Z,27.55
2023-02-06T18:25:34.193Z,27.71
2023-02-06T18:28:02.878Z,27.52
2023-02-06T18:30:34.285Z,27.41
2023-02-06T18:33:03.210Z,27.49
2023-02-06T18:35:32.213Z,27.68
2023-02-06T18:38:00.735Z,27.61
2023-02-06T18:40:29.544Z,27.77
2023-02-06T18:42:57.793Z,27.58
2023-02-06T18:45:31.277Z,27.29
2023-02-06T18:48:01.423Z,27.37
2023-02-06T18:50:31.774Z,27.24
2023-02-06T18:53:00.129Z,27.39
2023-02-06T18:55:28.898Z,27.55
2023-02-06T18:57:57.215Z,27.59
2023-02-06T19:00:25.924Z,27.75
2023-02-06T19:02:54.232Z,27.68
2023-02-06T19:05:24.710Z,27.46
2023-02-06T19:07:54.213Z,27.73
2023-02-06T19:10:23.253Z,27.67
2023-02-06T19:12:51.617Z,27.72
2023-02-06T19:15:20.645Z,27.66
2023-02-06T19:17:50.437Z,28.01
2023-02-06T19:20:19.788Z,27.66
2023-02-06T19:22:49.507Z,27.62
2023-02-06T19:25:19.379Z,27.58
2023-02-06T19:27:47.783Z,27.40
2023-02-06T19:30:16.566Z,27.49
2023-02-06T19:32:46.187Z,27.59
2023-02-06T19:35:15.574Z,27.85
2023-02-06T19:37:43.753Z,28.48
2023-02-06T19:40:13.787Z,28.76
2023-02-06T19:42:42.190Z,28.86
2023-02-06T19:45:11.014Z,29.15
2023-02-06T19:47:39.458Z,29.35
2023-02-06T19:50:08.745Z,29.04
2023-02-06T19:52:37.033Z,29.19
2023-02-06T19:55:05.826Z,29.68
2023-02-06T19:57:35.548Z,29.50
2023-02-06T20:00:04.844Z,29.77
2023-02-06T20:02:33.228Z,29.56
2023-02-06T20:05:02.734Z,29.69
2023-02-06T20:07:31.830Z,29.94
2023-02-06T20:10:00.602Z,29.86
2023-02-06T20:12:29.243Z,29.81
2023-02-06T20:15:00.584Z,29.69
2023-02-06T20:17:29.270Z,29.80
2023-02-06T20:20:00.044Z,29.73
2023-02-06T20:22:28.921Z,29.95
2023-02-06T20:24:57.486Z,30.21
2023-02-06T20:27:26.589Z,30.54
2023-02-06T20:29:55.205Z,30.42
2023-02-06T20:32:25.240Z,30.35
2023-02-06T20:34:53.805Z,30.57
2023-02-06T20:37:22.544Z,30.29
2023-02-06T20:39:51.078Z,30.50
2023-02-06T20:42:22.353Z,30.54
2023-02-06T20:44:51.783Z,30.74
2023-02-06T20:47:20.093Z,30.75
2023-02-06T20:49:50.482Z,30.59
2023-02-06T20:52:19.234Z,30.55
2023-02-06T20:54:47.823Z,30.65
2023-02-06T20:57:16.437Z,30.64
2023-02-06T20:59:45.066Z,30.75
2023-02-06T21:02:13.507Z,30.92
2023-02-06T21:04:42.386Z,30.85
2023-02-06T21:07:12.396Z,30.83
2023-02-06T21:09:44.616Z,30.84
2023-02-06T21:12:12.952Z,30.98
2023-02-06T21:14:41.933Z,30.91
2023-02-06T21:17:10.565Z,30.91
2023-02-06T21:19:39.298Z,31.34
2023-02-06T21:22:07.489Z,31.24
2023-02-06T21:24:37.776Z,31.18
2023-02-06T21:27:06.225Z,31.44
2023-02-06T21:29:35.077Z,31.09
2023-02-06T21:32:13.375Z,31.50
2023-02-06T21:34:43.070Z,31.51
2023-02-06T21:37:11.899Z,31.39
2023-02-06T21:39:42.204Z,31.30
2023-02-06T21:42:11.559Z,31.42
2023-02-06T21:44:40.102Z,31.43
2023-02-06T21:47:09.936Z,31.32
2023-02-06T21:49:38.799Z,31.57
2023-02-06T21:52:07.416Z,31.40
2023-02-06T21:54:36.186Z,31.36
2023-02-06T21:57:06.077Z,31.29
2023-02-06T21:59:38.256Z,31.37
2023-02-06T22:02:06.612Z,31.40
2023-02-06T22:04:35.363Z,31.75
2023-02-06T22:07:03.697Z,31.47
2023-02-06T22:09:32.292Z,31.57
2023-02-06T22:12:01.740Z,31.63
2023-02-06T22:14:31.661Z,31.51
2023-02-06T22:17:00.103Z,31.54
2023-02-06T22:19:29.375Z,31.90
2023-02-06T22:21:57.786Z,31.62
2023-02-06T22:24:26.582Z,31.75
2023-02-06T22:26:54.919Z,31.71
2023-02-06T22:29:23.409Z,31.86
2023-02-06T22:31:53.021Z,31.74
2023-02-06T22:34:22.230Z,32.10
2023-02-06T22:36:51.767Z,32.14
2023-02-06T22:39:20.876Z,32.04
2023-02-06T22:41:52.558Z,31.69
2023-02-06T22:44:22.096Z,31.89
2023-02-06T22:46:53.971Z,31.99
2023-02-06T22:49:24.633Z,32.08
2023-02-06T22:51:53.524Z,32.43
2023-02-06T22:54:22.164Z,32.59
2023-02-06T22:56:50.648Z,32.25
2023-02-06T22:59:20.645Z,32.50
2023-02-06T23:01:50.872Z,32.63
2023-02-06T23:04:22.756Z,32.52
2023-02-06T23:06:52.137Z,32.22
2023-02-06T23:09:22.500Z,32.33
2023-02-06T23:11:52.075Z,32.55
2023-02-06T23:14:21.042Z,32.76
2023-02-06T23:16:49.944Z,32.66
2023-02-06T23:19:21.352Z,32.60
2023-02-06T23:21:51.452Z,32.74
2023-02-06T23:24:20.469Z,32.92
2023-02-06T23:26:50.665Z,32.74
2023-02-06T23:29:20.459Z,32.58
2023-02-06T23:31:49.558Z,32.43
2023-02-06T23:34:20.513Z,32.60
2023-02-06T23:36:49.127Z,32.56
2023-02-06T23:39:17.836Z,32.69
2023-02-06T23:41:46.257Z,32.88
2023-02-06T23:44:14.818Z,32.74
2023-02-06T23:46:43.335Z,32.67
2023-02-06T23:49:12.232Z,33.02
2023-02-06T23:51:42.246Z,32.87
2023-02-06T23:54:11.313Z,32.96
2023-02-06T23:56:39.926Z,32.89
2023-02-06T23:59:08.647Z,33.20
